createdAt,value
2018-12-14T00:02:24.473Z,22.1
2018-12-14T00:05:32.884Z,22.1
2018-12-14T00:08:38.904Z,22.1
2018-12-14T00:11:45.611Z,22.1
2018-12-14T00:14:51.627Z,22.1
2018-12-14T00:17:57.561Z,22.1
2018-12-14T00:21:03.551Z,22.1
2018-12-14T00:24:09.407Z,22.1
2018-12-14T00:27:15.333Z,22.1
2018-12-14T00:30:21.222Z,22.1
2018-12-14T00:33:27.303Z,22
2018-12-14T00:36:33.243Z,22
2018-12-14T00:39:39.233Z,22
2018-12-14T00:42:45.161Z,22
2018-12-14T00:45:51.120Z,22
2018-12-14T00:48:57.147Z,22
2018-12-14T00:52:03.058Z,22
2018-12-14T00:55:09.018Z,22
2018-12-14T00:58:15.016Z,22
2018-12-14T01:01:21.024Z,22
2018-12-14T01:04:26.938Z,21.9
2018-12-14T01:07:32.957Z,21.9
2018-12-14T01:10:39.116Z,21.9
2018-12-14T01:13:45.016Z,21.8
2018-12-14T01:16:50.974Z,21.9
2018-12-14T01:19:56.993Z,21.8
2018-12-14T01:23:02.943Z,21.8
2018-12-14T01:26:08.799Z,21.8
2018-12-14T01:29:14.774Z,21.8
2018-12-14T01:32:20.725Z,21.8
2018-12-14T01:35:26.900Z,21.8
2018-12-14T01:38:33.151Z,21.8
2018-12-14T01:41:39.101Z,21.8
2018-12-14T01:44:45.110Z,21.8
2018-12-14T01:47:51.026Z,21.8
2018-12-14T01:50:57.000Z,21.8
2018-12-14T01:54:03.021Z,21.8
2018-12-14T01:57:09.116Z,21.8
2018-12-14T02:00:15.084Z,21.8
2018-12-14T02:03:21.097Z,21.8
2018-12-14T02:06:29.970Z,21.8
2018-12-14T02:09:35.812Z,21.8
2018-12-14T02:12:41.812Z,21.8
2018-12-14T02:15:47.735Z,21.9
2018-12-14T02:18:53.670Z,21.9
2018-12-14T02:21:59.546Z,21.9
2018-12-14T02:25:05.562Z,21.9
2018-12-14T02:28:14.453Z,22
2018-12-14T02:31:20.550Z,22
2018-12-14T02:34:26.456Z,22
2018-12-14T02:37:32.397Z,22.1
2018-12-14T02:40:38.382Z,22.1
2018-12-14T02:43:44.226Z,22.1
2018-12-14T02:46:50.166Z,22.2
2018-12-14T02:49:56.092Z,22.2
2018-12-14T02:53:02.019Z,22.3
2018-12-14T02:56:08.132Z,22.3
2018-12-14T02:59:14.093Z,22.4
2018-12-14T03:02:20.064Z,22.4
2018-12-14T03:05:26.112Z,22.4
2018-12-14T03:08:32.038Z,22.5
2018-12-14T03:11:37.986Z,22.5
2018-12-14T03:14:43.934Z,22.5
2018-12-14T03:17:52.513Z,22.5
2018-12-14T03:20:58.504Z,22.6
2018-12-14T03:24:04.362Z,22.6
2018-12-14T03:27:10.453Z,22.6
2018-12-14T03:30:16.534Z,22.7
2018-12-14T03:33:22.571Z,22.7
2018-12-14T03:36:28.503Z,22.7
2018-12-14T03:39:34.761Z,22.8
2018-12-14T03:42:40.882Z,22.8
2018-12-14T03:45:46.796Z,22.8
2018-12-14T03:48:52.820Z,22.8
2018-12-14T03:51:58.848Z,22.8
2018-12-14T03:55:04.844Z,22.9
2018-12-14T03:58:10.745Z,22.9
2018-12-14T04:01:16.700Z,23
2018-12-14T04:04:22.598Z,23
2018-12-14T04:07:28.516Z,23.1
2018-12-14T04:10:34.589Z,23.1
2018-12-14T04:13:40.651Z,23.2
2018-12-14T04:16:46.658Z,23.3
2018-12-14T04:19:52.607Z,23.3
2018-12-14T04:22:58.590Z,23.4
2018-12-14T04:26:04.531Z,23.4
2018-12-14T04:29:10.587Z,23.5
2018-12-14T04:32:16.545Z,23.5
2018-12-14T04:35:22.567Z,23.6
2018-12-14T04:38:29.589Z,23.6
2018-12-14T04:41:35.595Z,23.7
2018-12-14T04:44:41.653Z,23.7
2018-12-14T04:47:47.621Z,23.7
2018-12-14T04:50:53.679Z,23.8
2018-12-14T04:53:59.538Z,23.8
2018-12-14T04:57:05.520Z,23.8
2018-12-14T05:00:11.522Z,23.9
2018-12-14T05:03:17.484Z,23.9
2018-12-14T05:06:23.434Z,23.9
2018-12-14T05:09:29.348Z,24
2018-12-14T05:12:35.271Z,24
2018-12-14T05:15:41.149Z,24
2018-12-14T05:18:47.142Z,24
2018-12-14T05:21:56.095Z,24.1
2018-12-14T05:25:02.046Z,24.1
2018-12-14T05:28:08.165Z,24.1
2018-12-14T05:31:16.987Z,24.1
2018-12-14T05:34:22.905Z,24.2
2018-12-14T05:37:28.919Z,24.2
2018-12-14T05:40:34.906Z,24.2
2018-12-14T05:43:40.834Z,24.2
2018-12-14T05:46:46.859Z,-145.7
2018-12-14T05:49:55.434Z,-145.7
2018-12-14T05:53:01.496Z,-145.7
2018-12-14T05:56:07.425Z,-145.7
2018-12-14T05:59:14.379Z,-145.7
2018-12-14T06:02:20.323Z,-145.7
2018-12-14T06:05:26.350Z,-145.7
2018-12-14T06:08:32.305Z,-145.7
2018-12-14T06:11:38.532Z,-145.7
2018-12-14T06:14:47.349Z,-145.7
2018-12-14T06:17:53.239Z,-145.7
2018-12-14T06:20:59.202Z,-145.7
2018-12-14T06:24:05.313Z,-145.7
2018-12-14T06:27:11.382Z,-145.7
2018-12-14T06:30:17.280Z,-145.7
2018-12-14T06:33:23.246Z,-145.7
2018-12-14T06:36:29.190Z,-145.7
2018-12-14T06:39:35.184Z,-145.7
2018-12-14T06:42:41.217Z,-145.7
2018-12-14T06:45:47.076Z,-145.7
2018-12-14T06:48:53.036Z,-145.7
2018-12-14T06:51:59.211Z,-145.7
2018-12-14T06:55:05.167Z,-145.7
2018-12-14T06:58:11.172Z,-145.7
2018-12-14T07:01:17.206Z,-145.7
2018-12-14T07:04:23.284Z,-145.7
2018-12-14T07:07:29.235Z,-145.7
2018-12-14T07:10:35.245Z,-145.7
2018-12-14T07:13:43.244Z,-145.7
2018-12-14T07:16:49.339Z,-145.7
2018-12-14T07:19:55.418Z,-145.7
2018-12-14T07:23:01.580Z,-145.7
2018-12-14T07:26:07.669Z,-145.7
2018-12-14T07:29:13.869Z,-145.7
2018-12-14T07:32:19.809Z,-145.7
2018-12-14T07:35:25.807Z,-145.7
2018-12-14T07:38:31.796Z,-145.7
2018-12-14T07:41:37.648Z,-145.7
2018-12-14T07:44:43.638Z,-145.7
2018-12-14T07:47:51.174Z,-145.7
2018-12-14T07:50:57.178Z,-145.7
2018-12-14T07:54:03.173Z,-145.7
2018-12-14T07:57:09.061Z,-145.7
2018-12-14T08:00:15.163Z,-145.7
2018-12-14T08:03:21.327Z,-145.7
2018-12-14T08:06:27.329Z,-145.7
2018-12-14T08:09:33.313Z,-145.7
2018-12-14T08:12:39.409Z,-145.7
2018-12-14T08:15:45.433Z,-145.7
2018-12-14T08:18:51.631Z,-145.7
2018-12-14T08:21:57.643Z,-145.7
2018-12-14T08:25:03.883Z,-145.7
2018-12-14T08:28:09.980Z,-145.7
2018-12-14T08:31:16.010Z,-145.7
2018-12-14T08:34:21.911Z,-145.7
2018-12-14T08:37:27.928Z,-145.7
2018-12-14T08:40:33.893Z,-145.7
2018-12-14T08:43:41.512Z,-145.7
2018-12-14T08:46:47.829Z,-145.7
2018-12-14T08:49:54.828Z,-145.7
2018-12-14T08:53:00.739Z,-145.7
2018-12-14T08:56:06.871Z,-145.7
2018-12-14T08:59:12.866Z,-145.7
2018-12-14T09:02:19.309Z,-145.7
2018-12-14T09:05:25.512Z,-145.7
2018-12-14T09:08:31.566Z,-145.7
2018-12-14T09:11:37.635Z,-145.7
2018-12-14T09:14:43.638Z,-145.7
2018-12-14T09:17:50.477Z,-145.7
2018-12-14T09:21:00.952Z,-145.7
2018-12-14T09:24:07.407Z,-145.7
2018-12-14T09:27:13.415Z,-145.7
2018-12-14T09:30:19.370Z,-145.7
2018-12-14T09:33:25.367Z,-145.7
2018-12-14T09:36:34.310Z,-145.7
2018-12-14T09:39:42.818Z,-145.7
2018-12-14T09:42:49.081Z,-145.7
2018-12-14T09:45:55.032Z,-145.7
2018-12-14T09:49:02.088Z,-145.7
2018-12-14T09:52:08.059Z,-145.7
2018-12-14T09:55:14.081Z,-145.7
2018-12-14T09:58:20.171Z,-145.7
2018-12-14T10:01:27.130Z,-145.7
2018-12-14T10:04:33.247Z,-145.7
2018-12-14T10:07:39.273Z,-145.7
2018-12-14T10:10:51.543Z,-145.7
2018-12-14T10:14:00.747Z,-145.7
2018-12-14T10:17:07.045Z,-145.7
2018-12-14T10:20:15.566Z,-145.7
2018-12-14T10:23:21.683Z,-145.7
2018-12-14T10:26:27.783Z,-145.7
2018-12-14T10:29:34.067Z,-145.7
2018-12-14T10:32:40.112Z,-145.7
2018-12-14T10:35:46.231Z,-145.7
2018-12-14T10:38:52.185Z,-145.7
2018-12-14T10:41:58.223Z,-145.7
2018-12-14T10:45:04.209Z,-145.7
2018-12-14T10:48:10.179Z,-145.7
2018-12-14T10:51:16.075Z,-145.7
2018-12-14T10:54:22.168Z,-145.7
2018-12-14T10:57:28.355Z,-145.7
2018-12-14T11:00:34.262Z,-145.7
2018-12-14T11:03:40.338Z,-145.7
2018-12-14T11:06:46.289Z,-145.7
2018-12-14T11:09:52.228Z,-145.7
2018-12-14T11:12:58.095Z,-145.7
2018-12-14T11:16:05.061Z,-145.7
2018-12-14T11:19:10.995Z,-145.7
2018-12-14T11:22:17.128Z,-145.7
2018-12-14T11:25:23.304Z,-145.7
2018-12-14T11:28:29.220Z,-145.7
2018-12-14T11:31:36.177Z,-145.7
2018-12-14T11:34:42.305Z,-145.7
2018-12-14T11:37:48.285Z,-145.7
2018-12-14T11:40:54.315Z,-145.7
2018-12-14T11:44:00.245Z,-145.7
2018-12-14T11:47:06.238Z,-145.7
2018-12-14T11:50:18.848Z,-145.7
2018-12-14T11:53:24.852Z,-145.7
2018-12-14T11:56:30.894Z,-145.7
2018-12-14T11:59:36.898Z,-145.7
2018-12-14T12:02:43.483Z,-145.7
2018-12-14T12:05:49.442Z,-145.7
2018-12-14T12:08:55.601Z,-145.7
2018-12-14T12:12:01.810Z,-145.7
2018-12-14T12:15:09.594Z,-145.7
2018-12-14T12:18:15.711Z,-145.7
2018-12-14T12:21:21.651Z,-145.7
2018-12-14T12:24:28.587Z,-145.7
2018-12-14T12:27:34.627Z,-145.7
2018-12-14T12:30:40.586Z,-145.7
2018-12-14T12:33:46.443Z,-145.7
2018-12-14T12:36:52.573Z,-145.7
2018-12-14T12:39:58.579Z,-145.7
2018-12-14T12:43:04.819Z,-145.7
2018-12-14T12:46:11.098Z,-145.7
2018-12-14T12:49:16.965Z,-145.7
2018-12-14T12:52:23.090Z,-145.7
2018-12-14T12:55:29.126Z,-145.7
2018-12-14T12:58:35.214Z,-145.7
2018-12-14T13:01:42.289Z,-145.7
2018-12-14T13:04:48.250Z,-145.7
2018-12-14T13:07:54.339Z,-145.7
2018-12-14T13:11:00.433Z,-145.7
2018-12-14T13:14:06.774Z,-145.7
2018-12-14T13:17:13.809Z,-145.7
2018-12-14T13:20:20.012Z,-145.7
2018-12-14T13:23:26.009Z,-145.7
2018-12-14T13:26:32.125Z,-145.7
2018-12-14T13:29:38.088Z,-145.7
2018-12-14T13:32:43.949Z,-145.7
2018-12-14T13:35:50.879Z,-145.7
2018-12-14T13:38:56.862Z,-145.7
2018-12-14T13:42:02.848Z,-145.7
2018-12-14T13:45:08.834Z,-145.7
2018-12-14T13:48:14.707Z,-145.7
2018-12-14T13:51:21.889Z,-145.7
2018-12-14T13:54:27.902Z,-145.7
2018-12-14T13:57:33.914Z,-145.7
2018-12-14T14:00:39.877Z,-145.7
2018-12-14T14:01:37.573Z,26.5
2018-12-14T14:04:43.725Z,26.5
2018-12-14T14:07:49.641Z,26.5
2018-12-14T14:10:55.628Z,26.5
2018-12-14T14:14:01.783Z,26.5
2018-12-14T14:17:07.773Z,26.5
2018-12-14T14:20:15.723Z,26.5
2018-12-14T14:23:21.594Z,26.5
